sensor_id;sensor_type;location;lat;lon;timestamp;pressure;altitude;pressure_sealevel;temperature;humidity
18569;BME280;14780;48.316;-1.050;2023-02-13T00:01:59;100614.47;;;23.70;33.28
18569;BME280;14780;48.316;-1.050;2023-02-13T00:04:44;100614.47;;;23.70;33.29
18569;BME280;14780;48.316;-1.050;2023-02-13T00:07:28;100615.41;;;23.64;33.32
18569;BME280;14780;48.316;-1.050;2023-02-13T00:10:13;100617.44;;;23.69;33.26
18569;BME280;14780;48.316;-1.050;2023-02-13T00:12:58;100615.16;;;23.66;33.20
18569;BME280;14780;48.316;-1.050;2023-02-13T00:15:43;100625.84;;;23.67;33.18
18569;BME280;14780;48.316;-1.050;2023-02-13T00:18:28;100622.53;;;23.65;33.21
18569;BME280;14780;48.316;-1.050;2023-02-13T00:21:14;100614.94;;;23.67;33.26
18569;BME280;14780;48.316;-1.050;2023-02-13T00:23:59;100615.41;;;23.64;33.26
18569;BME280;14780;48.316;-1.050;2023-02-13T00:26:43;100614.34;;;23.65;33.25
18569;BME280;14780;48.316;-1.050;2023-02-13T00:29:28;100620.88;;;23.64;33.11
18569;BME280;14780;48.316;-1.050;2023-02-13T00:32:14;100620.03;;;23.64;33.20
18569;BME280;14780;48.316;-1.050;2023-02-13T00:34:59;100615.63;;;23.63;33.22
18569;BME280;14780;48.316;-1.050;2023-02-13T00:37:43;100613.75;;;23.63;33.16
18569;BME280;14780;48.316;-1.050;2023-02-13T00:40:28;100616.94;;;23.60;33.11
18569;BME280;14780;48.316;-1.050;2023-02-13T00:43:12;100605.56;;;23.63;33.18
18569;BME280;14780;48.316;-1.050;2023-02-13T00:45:57;100608.28;;;23.63;33.06
18569;BME280;14780;48.316;-1.050;2023-02-13T00:48:42;100614.19;;;23.60;33.15
18569;BME280;14780;48.316;-1.050;2023-02-13T00:51:27;100614.19;;;23.60;33.04
18569;BME280;14780;48.316;-1.050;2023-02-13T00:54:13;100608.72;;;23.60;33.06
18569;BME280;14780;48.316;-1.050;2023-02-13T00:56:57;100610.41;;;23.61;33.07
18569;BME280;14780;48.316;-1.050;2023-02-13T00:59:42;100604.94;;;23.61;33.04
18569;BME280;14780;48.316;-1.050;2023-02-13T01:02:27;100600.75;;;23.59;33.04
18569;BME280;14780;48.316;-1.050;2023-02-13T01:05:11;100595.28;;;23.59;33.01
18569;BME280;14780;48.316;-1.050;2023-02-13T01:07:56;100595.28;;;23.59;33.01
18569;BME280;14780;48.316;-1.050;2023-02-13T01:10:42;100611.47;;;23.60;33.08
18569;BME280;14780;48.316;-1.050;2023-02-13T01:13:28;100609.56;;;23.61;33.02
18569;BME280;14780;48.316;-1.050;2023-02-13T01:16:12;100604.13;;;23.61;32.99
18569;BME280;14780;48.316;-1.050;2023-02-13T01:18:59;100598.28;;;23.57;32.92
18569;BME280;14780;48.316;-1.050;2023-02-13T01:21:43;100592.81;;;23.57;32.92
18569;BME280;14780;48.316;-1.050;2023-02-13T01:24:30;100593.91;;;23.56;32.97
18569;BME280;14780;48.316;-1.050;2023-02-13T01:27:14;100596.38;;;23.58;32.98
18569;BME280;14780;48.316;-1.050;2023-02-13T01:29:59;100588.44;;;23.56;32.88
18569;BME280;14780;48.316;-1.050;2023-02-13T01:32:45;100593.41;;;23.59;32.90
18569;BME280;14780;48.316;-1.050;2023-02-13T01:35:30;100595.28;;;23.59;32.96
18569;BME280;14780;48.316;-1.050;2023-02-13T01:38:16;100605.41;;;23.58;32.93
18569;BME280;14780;48.316;-1.050;2023-02-13T01:41:01;100612.53;;;23.59;33.01
18569;BME280;14780;48.316;-1.050;2023-02-13T01:43:52;100604.81;;;23.56;32.94
18569;BME280;14780;48.316;-1.050;2023-02-13T01:46:40;100601.25;;;23.56;32.96
18569;BME280;14780;48.316;-1.050;2023-02-13T01:49:26;100599.59;;;23.55;32.95
18569;BME280;14780;48.316;-1.050;2023-02-13T01:52:12;100601.72;;;23.53;32.93
18569;BME280;14780;48.316;-1.050;2023-02-13T01:54:57;100600.06;;;23.52;32.91
18569;BME280;14780;48.316;-1.050;2023-02-13T01:57:45;100598.72;;;23.54;32.98
18569;BME280;14780;48.316;-1.050;2023-02-13T02:00:33;100600.88;;;23.52;32.83
18569;BME280;14780;48.316;-1.050;2023-02-13T02:03:30;100597.06;;;23.53;32.89
18569;BME280;14780;48.316;-1.050;2023-02-13T02:06:24;100597.06;;;23.53;32.83
18569;BME280;14780;48.316;-1.050;2023-02-13T02:09:18;100593.75;;;23.51;32.87
18569;BME280;14780;48.316;-1.050;2023-02-13T02:14:57;100583.91;;;23.50;32.86
18569;BME280;14780;48.316;-1.050;2023-02-13T02:17:42;100589.34;;;23.50;32.94
18569;BME280;14780;48.316;-1.050;2023-02-13T02:36:05;100582.47;;;23.48;32.91
18569;BME280;14780;48.316;-1.050;2023-02-13T02:45:50;100571.75;;;23.46;32.82
18569;BME280;14780;48.316;-1.050;2023-02-13T02:48:49;100571.53;;;23.48;32.84
18569;BME280;14780;48.316;-1.050;2023-02-13T02:52:06;100569.03;;;23.46;32.82
18569;BME280;14780;48.316;-1.050;2023-02-13T02:55:05;100570.09;;;23.45;32.87
18569;BME280;14780;48.316;-1.050;2023-02-13T02:58:02;100567.72;;;23.49;32.87
18569;BME280;14780;48.316;-1.050;2023-02-13T03:01:13;100566.91;;;23.48;32.80
18569;BME280;14780;48.316;-1.050;2023-02-13T03:04:25;100564.19;;;23.48;32.88
18569;BME280;14780;48.316;-1.050;2023-02-13T03:07:32;100563.56;;;23.46;32.89
18569;BME280;14780;48.316;-1.050;2023-02-13T03:10:28;100568.56;;;23.49;32.84
18569;BME280;14780;48.316;-1.050;2023-02-13T03:13:43;100572.59;;;23.47;32.79
18569;BME280;14780;48.316;-1.050;2023-02-13T03:16:29;100568.22;;;23.46;32.86
18569;BME280;14780;48.316;-1.050;2023-02-13T03:19:49;100569.88;;;23.47;32.82
18569;BME280;14780;48.316;-1.050;2023-02-13T03:23:22;100576.16;;;23.47;32.79
18569;BME280;14780;48.316;-1.050;2023-02-13T03:26:26;100566.53;;;23.45;32.79
18569;BME280;14780;48.316;-1.050;2023-02-13T03:33:06;100567.38;;;23.45;32.70
18569;BME280;14780;48.316;-1.050;2023-02-13T03:42:36;100564.03;;;23.43;32.79
18569;BME280;14780;48.316;-1.050;2023-02-13T03:45:43;100564.63;;;23.45;32.76
18569;BME280;14780;48.316;-1.050;2023-02-13T03:48:42;100569.50;;;23.43;32.86
18569;BME280;14780;48.316;-1.050;2023-02-13T03:51:57;100558.34;;;23.45;32.78
18569;BME280;14780;48.316;-1.050;2023-02-13T03:54:50;100556.06;;;23.42;32.79
18569;BME280;14780;48.316;-1.050;2023-02-13T03:58:00;100551.91;;;23.39;32.82
18569;BME280;14780;48.316;-1.050;2023-02-13T04:01:06;100560.72;;;23.42;32.73
18569;BME280;14780;48.316;-1.050;2023-02-13T04:07:09;100555.69;;;23.38;32.70
18569;BME280;14780;48.316;-1.050;2023-02-13T04:09:57;100561.66;;;23.36;32.66
18569;BME280;14780;48.316;-1.050;2023-02-13T04:13:02;100558.44;;;23.38;32.74
18569;BME280;14780;48.316;-1.050;2023-02-13T04:15:55;100563.91;;;23.38;32.79
18569;BME280;14780;48.316;-1.050;2023-02-13T04:18:41;100560.81;;;23.35;32.81
18569;BME280;14780;48.316;-1.050;2023-02-13T04:21:30;100552.38;;;23.37;32.72
18569;BME280;14780;48.316;-1.050;2023-02-13T04:24:15;100559.72;;;23.36;32.68
18569;BME280;14780;48.316;-1.050;2023-02-13T04:27:00;100559.13;;;23.34;32.73
18569;BME280;14780;48.316;-1.050;2023-02-13T04:29:45;100569.22;;;23.33;32.80
18569;BME280;14780;48.316;-1.050;2023-02-13T04:32:30;100565.44;;;23.35;32.67
18569;BME280;14780;48.316;-1.050;2023-02-13T04:35:14;100563.31;;;23.37;32.68
18569;BME280;14780;48.316;-1.050;2023-02-13T04:38:00;100555.13;;;23.37;32.77
18569;BME280;14780;48.316;-1.050;2023-02-13T04:40:44;100556.78;;;23.38;32.71
18569;BME280;14780;48.316;-1.050;2023-02-13T04:43:29;100555.13;;;23.37;32.72
18569;BME280;14780;48.316;-1.050;2023-02-13T04:46:14;100554.88;;;23.38;32.70
18569;BME280;14780;48.316;-1.050;2023-02-13T04:48:58;100554.53;;;23.35;32.72
18569;BME280;14780;48.316;-1.050;2023-02-13T04:51:43;100560.56;;;23.37;32.70
18569;BME280;14780;48.316;-1.050;2023-02-13T04:54:27;100561.16;;;23.38;32.69
18569;BME280;14780;48.316;-1.050;2023-02-13T04:57:12;100557.84;;;23.37;32.75
18569;BME280;14780;48.316;-1.050;2023-02-13T04:59:57;100552.38;;;23.37;32.72
18569;BME280;14780;48.316;-1.050;2023-02-13T05:02:42;100559.50;;;23.38;32.74
18569;BME280;14780;48.316;-1.050;2023-02-13T05:05:26;100558.44;;;23.38;32.77
18569;BME280;14780;48.316;-1.050;2023-02-13T05:08:11;100561.66;;;23.36;32.69
18569;BME280;14780;48.316;-1.050;2023-02-13T05:10:55;100564.84;;;23.33;32.72
18569;BME280;14780;48.316;-1.050;2023-02-13T05:13:40;100563.31;;;23.37;32.83
18569;BME280;14780;48.316;-1.050;2023-02-13T05:16:24;100559.50;;;23.38;32.74
18569;BME280;14780;48.316;-1.050;2023-02-13T05:19:09;100564.13;;;23.37;32.68
18569;BME280;14780;48.316;-1.050;2023-02-13T05:21:54;100554.53;;;23.35;32.71
18569;BME280;14780;48.316;-1.050;2023-02-13T05:24:57;100561.88;;;23.34;32.75
18569;BME280;14780;48.316;-1.050;2023-02-13T05:27:42;100563.31;;;23.37;32.70
18569;BME280;14780;48.316;-1.050;2023-02-13T05:30:26;100559.03;;;23.40;32.72
18569;BME280;14780;48.316;-1.050;2023-02-13T05:33:11;100555.94;;;23.37;32.64
18569;BME280;14780;48.316;-1.050;2023-02-13T05:35:55;100550.72;;;23.36;32.65
18569;BME280;14780;48.316;-1.050;2023-02-13T05:38:40;100554.53;;;23.35;32.67
18569;BME280;14780;48.316;-1.050;2023-02-13T05:41:24;100548.81;;;23.36;32.73
18569;BME280;14780;48.316;-1.050;2023-02-13T05:44:10;100554.53;;;23.35;32.65
18569;BME280;14780;48.316;-1.050;2023-02-13T05:46:55;100552.03;;;23.33;32.68
18569;BME280;14780;48.316;-1.050;2023-02-13T05:49:40;100554.53;;;23.35;32.71
18569;BME280;14780;48.316;-1.050;2023-02-13T05:52:24;100557.47;;;23.33;32.69
18569;BME280;14780;48.316;-1.050;2023-02-13T05:55:09;100554.16;;;23.31;32.72
18569;BME280;14780;48.316;-1.050;2023-02-13T05:57:57;100551.16;;;23.33;32.74
18569;BME280;14780;48.316;-1.050;2023-02-13T06:00:42;100556.03;;;23.31;32.74
18569;BME280;14780;48.316;-1.050;2023-02-13T06:03:28;100551.16;;;23.33;32.61
18569;BME280;14780;48.316;-1.050;2023-02-13T06:06:13;100551.66;;;23.30;32.75
18569;BME280;14780;48.316;-1.050;2023-02-13T06:08:59;100545.13;;;23.31;32.70
18569;BME280;14780;48.316;-1.050;2023-02-13T06:11:43;100548.06;;;23.29;32.74
18569;BME280;14780;48.316;-1.050;2023-02-13T06:14:28;100553.31;;;23.31;32.72
18569;BME280;14780;48.316;-1.050;2023-02-13T06:17:12;100553.53;;;23.29;32.73
18569;BME280;14780;48.316;-1.050;2023-02-13T06:19:57;100556.28;;;23.29;32.72
18569;BME280;14780;48.316;-1.050;2023-02-13T06:22:41;100551.88;;;23.28;32.54
18569;BME280;14780;48.316;-1.050;2023-02-13T06:25:26;100552.47;;;23.30;32.66
18569;BME280;14780;48.316;-1.050;2023-02-13T06:28:11;100562.56;;;23.30;32.69
18569;BME280;14780;48.316;-1.050;2023-02-13T06:30:56;100563.66;;;23.29;32.74
18569;BME280;14780;48.316;-1.050;2023-02-13T06:33:41;100568.50;;;23.27;32.80
18569;BME280;14780;48.316;-1.050;2023-02-13T06:36:26;100570.19;;;23.28;32.80
18569;BME280;14780;48.316;-1.050;2023-02-13T06:39:10;100570.19;;;23.28;32.71
18569;BME280;14780;48.316;-1.050;2023-02-13T06:41:55;100576.81;;;23.32;32.70
18569;BME280;14780;48.316;-1.050;2023-02-13T06:44:39;100576.81;;;23.32;32.76
18569;BME280;14780;48.316;-1.050;2023-02-13T06:47:24;100581.00;;;23.34;32.75
18569;BME280;14780;48.316;-1.050;2023-02-13T06:50:09;100581.84;;;23.35;32.79
18569;BME280;14780;48.316;-1.050;2023-02-13T06:52:55;100575.66;;;23.28;33.03
18569;BME280;14780;48.316;-1.050;2023-02-13T06:55:39;100579.34;;;23.33;32.91
18569;BME280;14780;48.316;-1.050;2023-02-13T06:58:24;100579.34;;;23.33;32.87
18569;BME280;14780;48.316;-1.050;2023-02-13T07:01:10;100581.47;;;23.31;32.99
18569;BME280;14780;48.316;-1.050;2023-02-13T07:03:54;100585.03;;;23.32;32.95
18569;BME280;14780;48.316;-1.050;2023-02-13T07:06:39;100595.50;;;23.35;32.96
18569;BME280;14780;48.316;-1.050;2023-02-13T07:09:23;100595.34;;;23.30;33.04
18569;BME280;14780;48.316;-1.050;2023-02-13T07:12:08;100594.88;;;23.33;33.01
18569;BME280;14780;48.316;-1.050;2023-02-13T07:14:53;100607.47;;;23.33;33.02
18569;BME280;14780;48.316;-1.050;2023-02-13T07:17:38;100602.84;;;23.34;33.08
18569;BME280;14780;48.316;-1.050;2023-02-13T07:20:23;100602.84;;;23.34;33.08
18569;BME280;14780;48.316;-1.050;2023-02-13T07:23:08;100605.94;;;23.38;33.09
18569;BME280;14780;48.316;-1.050;2023-02-13T07:25:53;100598.81;;;23.37;33.12
18569;BME280;14780;48.316;-1.050;2023-02-13T07:28:38;100609.16;;;23.35;33.20
18569;BME280;14780;48.316;-1.050;2023-02-13T07:31:23;100609.16;;;23.35;33.23
18569;BME280;14780;48.316;-1.050;2023-02-13T07:34:07;100607.47;;;23.33;33.14
18569;BME280;14780;48.316;-1.050;2023-02-13T07:36:52;100621.13;;;23.33;33.19
18569;BME280;14780;48.316;-1.050;2023-02-13T07:39:37;100616.72;;;23.33;33.17
18569;BME280;14780;48.316;-1.050;2023-02-13T07:42:22;100621.97;;;23.34;33.13
18569;BME280;14780;48.316;-1.050;2023-02-13T07:45:07;100625.16;;;23.31;33.22
18569;BME280;14780;48.316;-1.050;2023-02-13T07:47:55;100630.38;;;23.33;33.24
18569;BME280;14780;48.316;-1.050;2023-02-13T07:50:40;100626.22;;;23.30;33.16
18569;BME280;14780;48.316;-1.050;2023-02-13T07:53:24;100636.09;;;23.31;33.18
18569;BME280;14780;48.316;-1.050;2023-02-13T07:56:10;100634.19;;;23.32;33.13
18569;BME280;14780;48.316;-1.050;2023-02-13T07:58:55;100636.09;;;23.31;33.13
18569;BME280;14780;48.316;-1.050;2023-02-13T08:01:40;100644.03;;;23.33;33.15
18569;BME280;14780;48.316;-1.050;2023-02-13T08:04:25;100641.56;;;23.31;33.13
18569;BME280;14780;48.316;-1.050;2023-02-13T08:07:10;100642.38;;;23.32;33.14
18569;BME280;14780;48.316;-1.050;2023-02-13T08:09:54;100644.03;;;23.33;33.06
18569;BME280;14780;48.316;-1.050;2023-02-13T08:12:58;100649.75;;;23.31;33.12
18569;BME280;14780;48.316;-1.050;2023-02-13T08:15:43;100642.84;;;23.29;33.21
18569;BME280;14780;48.316;-1.050;2023-02-13T08:18:31;100642.38;;;23.32;33.16
18569;BME280;14780;48.316;-1.050;2023-02-13T08:21:15;100639.66;;;23.32;33.04
18569;BME280;14780;48.316;-1.050;2023-02-13T08:24:00;100635.25;;;23.31;33.13
18569;BME280;14780;48.316;-1.050;2023-02-13T08:26:45;100642.84;;;23.29;33.13
18569;BME280;14780;48.316;-1.050;2023-02-13T08:29:29;100639.06;;;23.30;33.02
18569;BME280;14780;48.316;-1.050;2023-02-13T08:32:14;100638.19;;;23.29;33.11
18569;BME280;14780;48.316;-1.050;2023-02-13T08:34:59;100639.06;;;23.30;33.09
18569;BME280;14780;48.316;-1.050;2023-02-13T08:37:43;100640.13;;;23.29;33.01
18569;BME280;14780;48.316;-1.050;2023-02-13T08:40:28;100653.78;;;23.29;33.08
18569;BME280;14780;48.316;-1.050;2023-02-13T08:43:13;100648.06;;;23.30;33.08
18569;BME280;14780;48.316;-1.050;2023-02-13T08:45:58;100654.16;;;23.32;32.99
18569;BME280;14780;48.316;-1.050;2023-02-13T08:48:43;100652.47;;;23.31;33.07
18569;BME280;14780;48.316;-1.050;2023-02-13T08:51:28;100648.69;;;23.32;32.95
18569;BME280;14780;48.316;-1.050;2023-02-13T08:54:13;100647.41;;;23.35;32.96
18569;BME280;14780;48.316;-1.050;2023-02-13T08:56:57;100653.91;;;23.33;32.92
18569;BME280;14780;48.316;-1.050;2023-02-13T08:59:42;100640.25;;;23.33;32.93
18569;BME280;14780;48.316;-1.050;2023-02-13T09:02:26;100642.16;;;23.33;32.99
18569;BME280;14780;48.316;-1.050;2023-02-13T09:05:11;100646.53;;;23.34;32.97
18569;BME280;14780;48.316;-1.050;2023-02-13T09:07:58;100654.53;;;23.36;32.97
18569;BME280;14780;48.316;-1.050;2023-02-13T09:10:43;100657.25;;;23.36;32.93
18569;BME280;14780;48.316;-1.050;2023-02-13T09:13:32;100645.69;;;23.33;32.91
18569;BME280;14780;48.316;-1.050;2023-02-13T09:16:18;100654.53;;;23.36;32.93
18569;BME280;14780;48.316;-1.050;2023-02-13T09:19:03;100660.19;;;23.34;32.89
18569;BME280;14780;48.316;-1.050;2023-02-13T09:21:48;100670.06;;;23.35;32.95
18569;BME280;14780;48.316;-1.050;2023-02-13T09:24:32;100654.75;;;23.34;32.84
18569;BME280;14780;48.316;-1.050;2023-02-13T09:27:17;100654.53;;;23.36;32.95
18569;BME280;14780;48.316;-1.050;2023-02-13T09:30:02;100656.63;;;23.33;32.81
18569;BME280;14780;48.316;-1.050;2023-02-13T09:32:46;100657.47;;;23.34;32.89
18569;BME280;14780;48.316;-1.050;2023-02-13T09:35:31;100652.84;;;23.35;32.83
18569;BME280;14780;48.316;-1.050;2023-02-13T09:38:16;100653.66;;;23.35;32.79
18569;BME280;14780;48.316;-1.050;2023-02-13T09:41:18;100653.66;;;23.35;32.81
18569;BME280;14780;48.316;-1.050;2023-02-13T09:44:19;100658.31;;;23.35;32.79
18569;BME280;14780;48.316;-1.050;2023-02-13T09:50:26;100651.78;;;23.36;32.83
18569;BME280;14780;48.316;-1.050;2023-02-13T09:53:21;100652.59;;;23.36;32.80
18569;BME280;14780;48.316;-1.050;2023-02-13T09:56:15;100653.44;;;23.37;32.77
18569;BME280;14780;48.316;-1.050;2023-02-13T09:59:36;100649.88;;;23.36;32.73
18569;BME280;14780;48.316;-1.050;2023-02-13T10:14:15;100654.63;;;23.40;32.74
18569;BME280;14780;48.316;-1.050;2023-02-13T10:17:09;100662.00;;;23.40;32.69
18569;BME280;14780;48.316;-1.050;2023-02-13T10:19:59;100651.91;;;23.40;32.73
18569;BME280;14780;48.316;-1.050;2023-02-13T10:22:48;100651.09;;;23.40;32.64
18569;BME280;14780;48.316;-1.050;2023-02-13T10:25:53;100661.31;;;23.44;32.72
18569;BME280;14780;48.316;-1.050;2023-02-13T10:32:01;100651.47;;;23.43;32.69
18569;BME280;14780;48.316;-1.050;2023-02-13T10:34:49;100656.31;;;23.42;32.66
18569;BME280;14780;48.316;-1.050;2023-02-13T10:37:37;100658.09;;;23.47;32.70
18569;BME280;14780;48.316;-1.050;2023-02-13T10:40:31;100652.66;;;23.47;32.63
18569;BME280;14780;48.316;-1.050;2023-02-13T10:43:20;100659.81;;;23.48;32.64
18569;BME280;14780;48.316;-1.050;2023-02-13T10:52:50;100660.16;;;23.52;32.58
18569;BME280;14780;48.316;-1.050;2023-02-13T11:01:56;100664.31;;;23.54;32.62
18569;BME280;14780;48.316;-1.050;2023-02-13T11:04:44;100675.00;;;23.56;32.56
18569;BME280;14780;48.316;-1.050;2023-02-13T11:07:31;100671.44;;;23.55;32.52
18569;BME280;14780;48.316;-1.050;2023-02-13T11:10:21;100670.16;;;23.58;32.66
18569;BME280;14780;48.316;-1.050;2023-02-13T11:13:21;100668.25;;;23.58;32.69
18569;BME280;14780;48.316;-1.050;2023-02-13T11:16:08;100671.81;;;23.59;32.55
18569;BME280;14780;48.316;-1.050;2023-02-13T11:18:57;100673.50;;;23.60;32.59
18569;BME280;14780;48.316;-1.050;2023-02-13T11:21:42;100670.06;;;23.64;32.65
18569;BME280;14780;48.316;-1.050;2023-02-13T11:24:27;100667.06;;;23.66;32.59
18569;BME280;14780;48.316;-1.050;2023-02-13T11:27:13;100669.59;;;23.67;32.59
18569;BME280;14780;48.316;-1.050;2023-02-13T11:30:01;100671.25;;;23.68;32.56
18569;BME280;14780;48.316;-1.050;2023-02-13T11:35:45;100666.78;;;23.74;32.53
18569;BME280;14780;48.316;-1.050;2023-02-13T11:38:30;100665.44;;;23.76;32.48
18569;BME280;14780;48.316;-1.050;2023-02-13T11:41:17;100652.41;;;23.78;32.47
18569;BME280;14780;48.316;-1.050;2023-02-13T11:44:03;100655.50;;;23.82;32.47
18569;BME280;14780;48.316;-1.050;2023-02-13T11:46:51;100657.97;;;23.83;32.41
18569;BME280;14780;48.316;-1.050;2023-02-13T11:49:44;100654.19;;;23.84;32.39
18569;BME280;14780;48.316;-1.050;2023-02-13T11:52:34;100652.09;;;23.86;32.31
18569;BME280;14780;48.316;-1.050;2023-02-13T11:55:33;100637.34;;;23.87;32.30
18569;BME280;14780;48.316;-1.050;2023-02-13T11:58:25;100642.09;;;23.92;32.30
18569;BME280;14780;48.316;-1.050;2023-02-13T12:01:25;100635.34;;;23.94;32.21
18569;BME280;14780;48.316;-1.050;2023-02-13T12:04:15;100638.66;;;23.96;32.32
18569;BME280;14780;48.316;-1.050;2023-02-13T12:07:20;100632.13;;;23.97;32.14
18569;BME280;14780;48.316;-1.050;2023-02-13T12:13:25;100629.03;;;24.05;32.13
18569;BME280;14780;48.316;-1.050;2023-02-13T12:19:12;100619.28;;;24.09;32.10
18569;BME280;14780;48.316;-1.050;2023-02-13T12:25:27;100619.16;;;24.16;31.97
18569;BME280;14780;48.316;-1.050;2023-02-13T12:41:04;100607.75;;;24.30;32.13
18569;BME280;14780;48.316;-1.050;2023-02-13T12:47:50;100611.22;;;24.37;31.84
18569;BME280;14780;48.316;-1.050;2023-02-13T13:00:19;100586.78;;;24.47;31.75
18569;BME280;14780;48.316;-1.050;2023-02-13T13:03:24;100600.25;;;24.49;31.78
18569;BME280;14780;48.316;-1.050;2023-02-13T13:06:34;100584.41;;;24.51;31.78
18569;BME280;14780;48.316;-1.050;2023-02-13T13:12:51;100588.97;;;24.57;31.78
18569;BME280;14780;48.316;-1.050;2023-02-13T13:16:05;100584.41;;;24.62;31.70
18569;BME280;14780;48.316;-1.050;2023-02-13T13:22:18;100581.22;;;24.65;31.69
18569;BME280;14780;48.316;-1.050;2023-02-13T13:28:24;100585.22;;;24.74;31.63
18569;BME280;14780;48.316;-1.050;2023-02-13T13:31:10;100578.69;;;24.75;31.64
18569;BME280;14780;48.316;-1.050;2023-02-13T13:34:01;100576.06;;;24.80;31.63
18569;BME280;14780;48.316;-1.050;2023-02-13T13:43:02;100571.50;;;24.86;31.48
18569;BME280;14780;48.316;-1.050;2023-02-13T13:46:02;100578.63;;;24.87;31.55
18569;BME280;14780;48.316;-1.050;2023-02-13T13:48:57;100572.06;;;24.88;31.52
18569;BME280;14780;48.316;-1.050;2023-02-13T13:51:44;100569.34;;;24.88;31.42
18569;BME280;14780;48.316;-1.050;2023-02-13T13:54:35;100562.56;;;24.90;31.39
18569;BME280;14780;48.316;-1.050;2023-02-13T13:58:17;100565.28;;;24.90;31.35
18569;BME280;14780;48.316;-1.050;2023-02-13T14:00:35;100562.56;;;24.90;31.38
18569;BME280;14780;48.316;-1.050;2023-02-13T14:03:43;100569.22;;;24.94;31.45
18569;BME280;14780;48.316;-1.050;2023-02-13T14:09:42;100548.00;;;25.01;31.18
18569;BME280;14780;48.316;-1.050;2023-02-13T14:18:23;100548.16;;;25.11;31.40
18569;BME280;14780;48.316;-1.050;2023-02-13T14:21:10;100549.94;;;25.17;31.61
18569;BME280;14780;48.316;-1.050;2023-02-13T14:23:57;100549.69;;;25.19;31.47
18569;BME280;14780;48.316;-1.050;2023-02-13T14:26:56;100538.75;;;25.19;31.66
18569;BME280;14780;48.316;-1.050;2023-02-13T14:29:46;100537.75;;;25.25;31.69
18569;BME280;14780;48.316;-1.050;2023-02-13T14:32:36;100537.75;;;25.25;31.52
18569;BME280;14780;48.316;-1.050;2023-02-13T14:35:29;100539.19;;;25.27;31.70
18569;BME280;14780;48.316;-1.050;2023-02-13T14:38:24;100537.03;;;25.29;31.48
18569;BME280;14780;48.316;-1.050;2023-02-13T14:44:42;100518.34;;;25.26;31.55
18569;BME280;14780;48.316;-1.050;2023-02-13T14:47:39;100514.28;;;25.29;31.38
18569;BME280;14780;48.316;-1.050;2023-02-13T14:50:34;100514.78;;;25.26;31.20
18569;BME280;14780;48.316;-1.050;2023-02-13T14:53:45;100517.19;;;25.22;31.00
18569;BME280;14780;48.316;-1.050;2023-02-13T14:56:32;100518.63;;;25.13;30.80
18569;BME280;14780;48.316;-1.050;2023-02-13T14:59:24;100522.94;;;25.09;30.54
18569;BME280;14780;48.316;-1.050;2023-02-13T15:05:16;100512.88;;;24.98;30.25
18569;BME280;14780;48.316;-1.050;2023-02-13T15:08:16;100516.09;;;24.95;30.28
18569;BME280;14780;48.316;-1.050;2023-02-13T15:11:02;100511.09;;;24.92;30.27
18569;BME280;14780;48.316;-1.050;2023-02-13T15:13:47;100513.25;;;24.90;29.95
18569;BME280;14780;48.316;-1.050;2023-02-13T15:16:32;100509.09;;;24.88;30.01
18569;BME280;14780;48.316;-1.050;2023-02-13T15:19:18;100516.97;;;24.84;29.90
18569;BME280;14780;48.316;-1.050;2023-02-13T15:22:05;100513.44;;;24.84;29.98
18569;BME280;14780;48.316;-1.050;2023-02-13T15:24:50;100517.47;;;24.81;29.78
18569;BME280;14780;48.316;-1.050;2023-02-13T15:27:42;100511.78;;;24.83;29.58
18569;BME280;14780;48.316;-1.050;2023-02-13T15:30:29;100516.91;;;24.79;29.55
18569;BME280;14780;48.316;-1.050;2023-02-13T15:33:20;100514.16;;;24.79;29.52
18569;BME280;14780;48.316;-1.050;2023-02-13T15:36:06;100511.44;;;24.79;29.46
18569;BME280;14780;48.316;-1.050;2023-02-13T15:39:01;100511.44;;;24.79;29.58
18569;BME280;14780;48.316;-1.050;2023-02-13T15:41:52;100514.41;;;24.78;29.49
18569;BME280;14780;48.316;-1.050;2023-02-13T15:44:39;100516.91;;;24.79;29.43
18569;BME280;14780;48.316;-1.050;2023-02-13T15:47:29;100510.00;;;24.77;29.27
18569;BME280;14780;48.316;-1.050;2023-02-13T15:50:35;100521.19;;;24.75;29.25
18569;BME280;14780;48.316;-1.050;2023-02-13T15:53:21;100514.06;;;24.74;29.20
18569;BME280;14780;48.316;-1.050;2023-02-13T15:56:05;100506.91;;;24.73;29.10
18569;BME280;14780;48.316;-1.050;2023-02-13T15:58:51;100514.28;;;24.73;29.23
18569;BME280;14780;48.316;-1.050;2023-02-13T16:01:36;100519.75;;;24.73;29.09
18569;BME280;14780;48.316;-1.050;2023-02-13T16:04:24;100521.19;;;24.75;29.19
18569;BME280;14780;48.316;-1.050;2023-02-13T16:07:12;100523.69;;;24.77;29.07
18569;BME280;14780;48.316;-1.050;2023-02-13T16:10:25;100526.66;;;24.75;29.12
18569;BME280;14780;48.316;-1.050;2023-02-13T16:13:16;100517.38;;;24.76;29.26
18569;BME280;14780;48.316;-1.050;2023-02-13T16:16:02;100521.34;;;24.69;29.16
18569;BME280;14780;48.316;-1.050;2023-02-13T16:18:52;100511.56;;;24.73;29.12
18569;BME280;14780;48.316;-1.050;2023-02-13T16:21:37;100518.22;;;24.77;29.17
18569;BME280;14780;48.316;-1.050;2023-02-13T16:24:23;100518.56;;;24.80;29.10
18569;BME280;14780;48.316;-1.050;2023-02-13T16:27:12;100517.25;;;24.83;29.00
18569;BME280;14780;48.316;-1.050;2023-02-13T16:30:01;100514.50;;;24.83;29.13
18569;BME280;14780;48.316;-1.050;2023-02-13T16:32:47;100524.13;;;24.85;29.07
18569;BME280;14780;48.316;-1.050;2023-02-13T16:35:34;100523.88;;;24.87;29.13
18569;BME280;14780;48.316;-1.050;2023-02-13T16:38:34;100522.56;;;24.89;29.07
18569;BME280;14780;48.316;-1.050;2023-02-13T16:44:32;100515.44;;;24.88;29.20
18569;BME280;14780;48.316;-1.050;2023-02-13T16:47:22;100531.63;;;24.90;29.24
18569;BME280;14780;48.316;-1.050;2023-02-13T16:50:14;100528.03;;;24.89;29.34
18569;BME280;14780;48.316;-1.050;2023-02-13T16:53:01;100524.72;;;24.87;29.22
18569;BME280;14780;48.316;-1.050;2023-02-13T16:55:46;100531.84;;;24.88;29.33
18569;BME280;14780;48.316;-1.050;2023-02-13T16:58:40;100530.78;;;24.89;29.33